Principe Rinaldo — IQIP — position and weather

sailwx.info

Track history (hours):
 
Tides and Currents Weather Stations Pressure Air Temp Water Temp Dewpoint Dewpoint Depression Visibility Wind Speed Wind Dir Waves Ship Positions

Principe Rinaldo

Last reported at 2018-Jun-11 08:34 UTC. Time now 2018-Jun-18 07:32 UTC.
Position N 36°59' E 012°10'.

Length 23 m; draft 2.9 m.

Type: Fishing. MMSI: 247142430.

Date/timePositionNaut miles runAvg speedWind from/ knotsBaromVisibWave heightAir tempDewpointWater temp
2018-Jun-11 08:34N 36°59' E 012°10'1 8.8
2018-Jun-11 08:29N 36°59' E 012°09'26 9.0
2018-Jun-11 05:34N 36°34' E 011°60'15 0.5
2018-Jun-10 00:57N 36°20' E 011°54'2 4.3
2018-Jun-10 00:28N 36°18' E 011°55'1 3.0
2018-Jun-10 00:00N 36°18' E 011°57'5 1.0
2018-Jun-09 19:42N 36°16' E 012°02'0 0.5
2018-Jun-09 19:29N 36°16' E 012°02'0 0.5
2018-Jun-09 19:00N 36°16' E 012°02'0 0.5
2018-Jun-09 18:30N 36°15' E 012°02'0 0.5
2018-Jun-09 18:00N 36°15' E 012°02'0 0.5
2018-Jun-09 17:29N 36°15' E 012°02'0 0.5
2018-Jun-09 17:00N 36°15' E 012°02'2 4.9
2018-Jun-09 16:30N 36°16' E 012°00'  
Track history (hours):
 
Tides and Currents Weather Stations Pressure Air Temp Water Temp Dewpoint Dewpoint Depression Visibility Wind Speed Wind Dir Waves Ship Positions

Principe Rinaldo

Last reported at 2018-Jun-11 08:34 UTC. Time now 2018-Jun-18 07:32 UTC.
Position N 36°59' E 012°10'.

Length 23 m; draft 2.9 m.

Type: Fishing. MMSI: 247142430.

Date/timePositionNaut miles runAvg speedWind from/ knotsBaromVisibWave heightAir tempDewpointWater temp
2018-Jun-11 08:34N 36°59' E 012°10'1 8.8
2018-Jun-11 08:29N 36°59' E 012°09'26 9.0
2018-Jun-11 05:34N 36°34' E 011°60'15 0.5
2018-Jun-10 00:57N 36°20' E 011°54'2 4.3
2018-Jun-10 00:28N 36°18' E 011°55'1 3.0
2018-Jun-10 00:00N 36°18' E 011°57'5 1.0
2018-Jun-09 19:42N 36°16' E 012°02'0 0.5
2018-Jun-09 19:29N 36°16' E 012°02'0 0.5
2018-Jun-09 19:00N 36°16' E 012°02'0 0.5
2018-Jun-09 18:30N 36°15' E 012°02'0 0.5
2018-Jun-09 18:00N 36°15' E 012°02'0 0.5
2018-Jun-09 17:29N 36°15' E 012°02'0 0.5
2018-Jun-09 17:00N 36°15' E 012°02'2 4.9
2018-Jun-09 16:30N 36°16' E 012°00'  

Dump ship's entire track history